sensor_id;sensor_type;location;lat;lon;timestamp;temperature;humidity
12746;DHT22;6437;53.686;10.030;2022-07-24T00:02:53;14.60;99.90
12746;DHT22;6437;53.686;10.030;2022-07-24T00:05:54;14.50;99.90
12746;DHT22;6437;53.686;10.030;2022-07-24T00:08:56;14.50;99.90
12746;DHT22;6437;53.686;10.030;2022-07-24T00:11:57;14.40;99.90
12746;DHT22;6437;53.686;10.030;2022-07-24T00:14:59;14.30;99.90
12746;DHT22;6437;53.686;10.030;2022-07-24T00:18:02;14.20;99.90
12746;DHT22;6437;53.686;10.030;2022-07-24T00:21:04;14.20;99.90
12746;DHT22;6437;53.686;10.030;2022-07-24T00:24:06;14.10;99.90
12746;DHT22;6437;53.686;10.030;2022-07-24T00:27:08;14.10;99.90
12746;DHT22;6437;53.686;10.030;2022-07-24T00:30:10;14.10;99.90
12746;DHT22;6437;53.686;10.030;2022-07-24T00:33:13;14.10;99.90
12746;DHT22;6437;53.686;10.030;2022-07-24T00:36:16;14.10;99.90
12746;DHT22;6437;53.686;10.030;2022-07-24T00:39:18;14.10;99.90
12746;DHT22;6437;53.686;10.030;2022-07-24T00:42:19;14.10;99.90
12746;DHT22;6437;53.686;10.030;2022-07-24T00:45:21;14.10;99.90
12746;DHT22;6437;53.686;10.030;2022-07-24T00:48:24;14.00;99.90
12746;DHT22;6437;53.686;10.030;2022-07-24T00:51:25;14.10;99.90
12746;DHT22;6437;53.686;10.030;2022-07-24T00:54:27;14.10;99.90
12746;DHT22;6437;53.686;10.030;2022-07-24T00:57:29;14.10;99.90
12746;DHT22;6437;53.686;10.030;2022-07-24T01:00:31;14.10;99.90
12746;DHT22;6437;53.686;10.030;2022-07-24T01:03:33;14.00;99.90
12746;DHT22;6437;53.686;10.030;2022-07-24T01:06:35;14.10;99.90
12746;DHT22;6437;53.686;10.030;2022-07-24T01:09:37;14.00;99.90
12746;DHT22;6437;53.686;10.030;2022-07-24T01:12:39;14.10;99.90
12746;DHT22;6437;53.686;10.030;2022-07-24T01:15:41;14.10;99.90
12746;DHT22;6437;53.686;10.030;2022-07-24T01:18:44;14.10;99.90
12746;DHT22;6437;53.686;10.030;2022-07-24T01:21:47;14.10;99.90
12746;DHT22;6437;53.686;10.030;2022-07-24T01:24:49;14.00;99.90
12746;DHT22;6437;53.686;10.030;2022-07-24T01:27:50;14.00;99.90
12746;DHT22;6437;53.686;10.030;2022-07-24T01:30:52;14.00;99.90
12746;DHT22;6437;53.686;10.030;2022-07-24T01:33:54;14.00;99.90
12746;DHT22;6437;53.686;10.030;2022-07-24T01:36:57;14.00;99.90
12746;DHT22;6437;53.686;10.030;2022-07-24T01:39:58;14.00;99.90
12746;DHT22;6437;53.686;10.030;2022-07-24T01:43:00;14.00;99.90
12746;DHT22;6437;53.686;10.030;2022-07-24T01:46:02;14.00;99.90
12746;DHT22;6437;53.686;10.030;2022-07-24T01:49:03;14.00;99.90
12746;DHT22;6437;53.686;10.030;2022-07-24T01:52:06;14.10;99.90
12746;DHT22;6437;53.686;10.030;2022-07-24T01:55:08;14.10;99.90
12746;DHT22;6437;53.686;10.030;2022-07-24T01:58:10;14.10;99.90
12746;DHT22;6437;53.686;10.030;2022-07-24T02:01:12;14.10;99.90
12746;DHT22;6437;53.686;10.030;2022-07-24T02:04:13;14.10;99.90
12746;DHT22;6437;53.686;10.030;2022-07-24T02:07:16;14.10;99.90
12746;DHT22;6437;53.686;10.030;2022-07-24T02:10:18;14.10;99.90
12746;DHT22;6437;53.686;10.030;2022-07-24T02:13:20;14.10;99.90
12746;DHT22;6437;53.686;10.030;2022-07-24T02:16:22;14.10;99.90
12746;DHT22;6437;53.686;10.030;2022-07-24T02:19:23;14.00;99.90
12746;DHT22;6437;53.686;10.030;2022-07-24T02:22:27;14.00;99.90
12746;DHT22;6437;53.686;10.030;2022-07-24T02:25:30;14.00;99.90
12746;DHT22;6437;53.686;10.030;2022-07-24T02:28:32;14.00;99.90
12746;DHT22;6437;53.686;10.030;2022-07-24T02:31:33;14.00;99.90
12746;DHT22;6437;53.686;10.030;2022-07-24T02:34:35;14.00;99.90
12746;DHT22;6437;53.686;10.030;2022-07-24T02:37:39;14.00;99.90
12746;DHT22;6437;53.686;10.030;2022-07-24T02:40:41;14.00;99.90
12746;DHT22;6437;53.686;10.030;2022-07-24T02:43:42;13.90;99.90
12746;DHT22;6437;53.686;10.030;2022-07-24T02:46:44;13.90;99.90
12746;DHT22;6437;53.686;10.030;2022-07-24T02:49:45;13.90;99.90
12746;DHT22;6437;53.686;10.030;2022-07-24T02:52:49;13.90;99.90
12746;DHT22;6437;53.686;10.030;2022-07-24T02:55:50;13.80;99.90
12746;DHT22;6437;53.686;10.030;2022-07-24T02:58:52;13.80;99.90
12746;DHT22;6437;53.686;10.030;2022-07-24T03:01:54;13.80;99.90
12746;DHT22;6437;53.686;10.030;2022-07-24T03:04:55;13.70;99.90
12746;DHT22;6437;53.686;10.030;2022-07-24T03:07:58;13.60;99.90
12746;DHT22;6437;53.686;10.030;2022-07-24T03:11:00;13.70;99.90
12746;DHT22;6437;53.686;10.030;2022-07-24T03:14:02;13.70;99.90
12746;DHT22;6437;53.686;10.030;2022-07-24T03:17:03;13.60;99.90
12746;DHT22;6437;53.686;10.030;2022-07-24T03:20:05;13.60;99.90
12746;DHT22;6437;53.686;10.030;2022-07-24T03:23:09;13.50;99.90
12746;DHT22;6437;53.686;10.030;2022-07-24T03:26:10;13.50;99.90
12746;DHT22;6437;53.686;10.030;2022-07-24T03:29:12;13.40;99.90
12746;DHT22;6437;53.686;10.030;2022-07-24T03:32:13;13.40;99.90
12746;DHT22;6437;53.686;10.030;2022-07-24T03:35:15;13.50;99.90
12746;DHT22;6437;53.686;10.030;2022-07-24T03:38:18;13.50;99.90
12746;DHT22;6437;53.686;10.030;2022-07-24T03:41:20;13.50;99.90
12746;DHT22;6437;53.686;10.030;2022-07-24T03:44:21;13.60;99.90
12746;DHT22;6437;53.686;10.030;2022-07-24T03:47:23;13.60;99.90
12746;DHT22;6437;53.686;10.030;2022-07-24T03:50:25;13.60;99.90
12746;DHT22;6437;53.686;10.030;2022-07-24T03:53:28;13.60;99.90
12746;DHT22;6437;53.686;10.030;2022-07-24T03:56:29;13.50;99.90
12746;DHT22;6437;53.686;10.030;2022-07-24T03:59:31;13.50;99.90
12746;DHT22;6437;53.686;10.030;2022-07-24T04:02:32;13.50;99.90
12746;DHT22;6437;53.686;10.030;2022-07-24T04:05:34;13.50;99.90
12746;DHT22;6437;53.686;10.030;2022-07-24T04:08:37;13.40;99.90
12746;DHT22;6437;53.686;10.030;2022-07-24T04:11:38;13.40;99.90
12746;DHT22;6437;53.686;10.030;2022-07-24T04:14:40;13.30;99.90
12746;DHT22;6437;53.686;10.030;2022-07-24T04:17:42;13.40;99.90
12746;DHT22;6437;53.686;10.030;2022-07-24T04:20:43;13.50;99.90
12746;DHT22;6437;53.686;10.030;2022-07-24T04:23:46;13.60;99.90
12746;DHT22;6437;53.686;10.030;2022-07-24T04:26:48;13.60;99.90
12746;DHT22;6437;53.686;10.030;2022-07-24T04:29:50;13.60;99.90
12746;DHT22;6437;53.686;10.030;2022-07-24T04:32:51;13.60;99.90
12746;DHT22;6437;53.686;10.030;2022-07-24T04:35:53;13.60;99.90
12746;DHT22;6437;53.686;10.030;2022-07-24T04:38:56;13.70;99.90
12746;DHT22;6437;53.686;10.030;2022-07-24T04:41:58;13.70;99.90
12746;DHT22;6437;53.686;10.030;2022-07-24T04:44:59;13.70;99.90
12746;DHT22;6437;53.686;10.030;2022-07-24T04:48:01;13.80;99.90
12746;DHT22;6437;53.686;10.030;2022-07-24T04:51:03;13.80;99.90
12746;DHT22;6437;53.686;10.030;2022-07-24T04:54:06;13.80;99.90
12746;DHT22;6437;53.686;10.030;2022-07-24T04:57:07;13.90;99.90
12746;DHT22;6437;53.686;10.030;2022-07-24T05:00:10;13.90;99.90
12746;DHT22;6437;53.686;10.030;2022-07-24T05:03:12;13.90;99.90
12746;DHT22;6437;53.686;10.030;2022-07-24T05:06:14;14.00;99.90
12746;DHT22;6437;53.686;10.030;2022-07-24T05:09:17;14.00;99.90
12746;DHT22;6437;53.686;10.030;2022-07-24T05:12:18;14.10;99.90
12746;DHT22;6437;53.686;10.030;2022-07-24T05:15:20;14.10;99.90
12746;DHT22;6437;53.686;10.030;2022-07-24T05:18:21;14.20;99.90
12746;DHT22;6437;53.686;10.030;2022-07-24T05:21:23;14.30;99.90
12746;DHT22;6437;53.686;10.030;2022-07-24T05:24:26;14.30;99.90
12746;DHT22;6437;53.686;10.030;2022-07-24T05:27:27;14.40;99.90
12746;DHT22;6437;53.686;10.030;2022-07-24T05:30:29;14.50;99.90
12746;DHT22;6437;53.686;10.030;2022-07-24T05:33:31;14.50;99.90
12746;DHT22;6437;53.686;10.030;2022-07-24T05:36:32;14.60;99.90
12746;DHT22;6437;53.686;10.030;2022-07-24T05:39:35;14.70;99.90
12746;DHT22;6437;53.686;10.030;2022-07-24T05:42:37;14.70;99.90
12746;DHT22;6437;53.686;10.030;2022-07-24T05:45:38;14.80;99.90
12746;DHT22;6437;53.686;10.030;2022-07-24T05:48:40;14.90;99.90
12746;DHT22;6437;53.686;10.030;2022-07-24T05:51:42;15.00;99.90
12746;DHT22;6437;53.686;10.030;2022-07-24T05:54:45;15.00;99.90
12746;DHT22;6437;53.686;10.030;2022-07-24T05:57:46;15.10;99.90
12746;DHT22;6437;53.686;10.030;2022-07-24T06:00:48;15.20;99.90
12746;DHT22;6437;53.686;10.030;2022-07-24T06:03:50;15.20;99.90
12746;DHT22;6437;53.686;10.030;2022-07-24T06:06:51;15.30;99.90
12746;DHT22;6437;53.686;10.030;2022-07-24T06:09:54;15.40;99.90
12746;DHT22;6437;53.686;10.030;2022-07-24T06:12:56;15.50;99.90
12746;DHT22;6437;53.686;10.030;2022-07-24T06:15:58;15.60;99.90
12746;DHT22;6437;53.686;10.030;2022-07-24T06:18:59;15.70;99.90
12746;DHT22;6437;53.686;10.030;2022-07-24T06:22:02;15.80;99.90
12746;DHT22;6437;53.686;10.030;2022-07-24T06:25:05;15.80;99.90
12746;DHT22;6437;53.686;10.030;2022-07-24T06:28:07;16.00;99.90
12746;DHT22;6437;53.686;10.030;2022-07-24T06:31:08;16.00;99.90
12746;DHT22;6437;53.686;10.030;2022-07-24T06:34:10;16.20;99.90
12746;DHT22;6437;53.686;10.030;2022-07-24T06:37:12;16.20;99.90
12746;DHT22;6437;53.686;10.030;2022-07-24T06:40:15;16.30;99.90
12746;DHT22;6437;53.686;10.030;2022-07-24T06:43:17;16.40;99.90
12746;DHT22;6437;53.686;10.030;2022-07-24T06:46:18;16.50;99.90
12746;DHT22;6437;53.686;10.030;2022-07-24T06:49:20;16.50;99.90
12746;DHT22;6437;53.686;10.030;2022-07-24T06:52:23;16.60;99.90
12746;DHT22;6437;53.686;10.030;2022-07-24T06:55:26;16.70;99.90
12746;DHT22;6437;53.686;10.030;2022-07-24T06:58:28;16.80;99.90
12746;DHT22;6437;53.686;10.030;2022-07-24T07:01:30;16.90;99.90
12746;DHT22;6437;53.686;10.030;2022-07-24T07:04:31;17.00;99.90
12746;DHT22;6437;53.686;10.030;2022-07-24T07:07:33;17.00;99.90
12746;DHT22;6437;53.686;10.030;2022-07-24T07:10:37;17.10;99.90
12746;DHT22;6437;53.686;10.030;2022-07-24T07:13:39;17.20;99.90
12746;DHT22;6437;53.686;10.030;2022-07-24T07:16:40;17.30;99.90
12746;DHT22;6437;53.686;10.030;2022-07-24T07:19:42;17.40;99.90
12746;DHT22;6437;53.686;10.030;2022-07-24T07:22:44;17.40;99.90
12746;DHT22;6437;53.686;10.030;2022-07-24T07:25:47;17.50;99.90
12746;DHT22;6437;53.686;10.030;2022-07-24T07:28:48;17.60;99.90
12746;DHT22;6437;53.686;10.030;2022-07-24T07:31:50;17.70;99.90
12746;DHT22;6437;53.686;10.030;2022-07-24T07:34:52;17.70;99.90
12746;DHT22;6437;53.686;10.030;2022-07-24T07:37:53;17.80;99.90
12746;DHT22;6437;53.686;10.030;2022-07-24T07:40:56;17.90;99.90
12746;DHT22;6437;53.686;10.030;2022-07-24T07:43:58;18.00;99.90
12746;DHT22;6437;53.686;10.030;2022-07-24T07:47:00;18.10;99.90
12746;DHT22;6437;53.686;10.030;2022-07-24T07:50:01;18.10;99.90
12746;DHT22;6437;53.686;10.030;2022-07-24T07:53:04;18.20;99.90
12746;DHT22;6437;53.686;10.030;2022-07-24T07:56:07;18.30;99.90
12746;DHT22;6437;53.686;10.030;2022-07-24T07:59:08;18.40;99.90
12746;DHT22;6437;53.686;10.030;2022-07-24T08:02:10;18.40;99.90
12746;DHT22;6437;53.686;10.030;2022-07-24T08:05:12;18.50;99.90
12746;DHT22;6437;53.686;10.030;2022-07-24T08:08:13;18.50;99.90
12746;DHT22;6437;53.686;10.030;2022-07-24T08:11:16;18.60;99.90
12746;DHT22;6437;53.686;10.030;2022-07-24T08:14:18;18.70;99.90
12746;DHT22;6437;53.686;10.030;2022-07-24T08:17:20;18.80;99.90
12746;DHT22;6437;53.686;10.030;2022-07-24T08:20:21;18.90;99.90
12746;DHT22;6437;53.686;10.030;2022-07-24T08:23:23;18.90;99.90
12746;DHT22;6437;53.686;10.030;2022-07-24T08:26:26;19.00;99.90
12746;DHT22;6437;53.686;10.030;2022-07-24T08:29:31;19.10;99.90
12746;DHT22;6437;53.686;10.030;2022-07-24T08:32:32;19.20;99.90
12746;DHT22;6437;53.686;10.030;2022-07-24T08:35:34;19.20;99.90
12746;DHT22;6437;53.686;10.030;2022-07-24T08:38:35;19.30;99.90
12746;DHT22;6437;53.686;10.030;2022-07-24T08:41:38;19.30;99.90
12746;DHT22;6437;53.686;10.030;2022-07-24T08:44:40;19.40;99.90
12746;DHT22;6437;53.686;10.030;2022-07-24T08:47:42;19.50;99.90
12746;DHT22;6437;53.686;10.030;2022-07-24T08:50:44;19.60;99.90
12746;DHT22;6437;53.686;10.030;2022-07-24T08:53:46;19.70;99.90
12746;DHT22;6437;53.686;10.030;2022-07-24T08:56:51;19.80;99.90
12746;DHT22;6437;53.686;10.030;2022-07-24T08:59:53;19.90;99.90
12746;DHT22;6437;53.686;10.030;2022-07-24T09:02:54;20.00;99.90
12746;DHT22;6437;53.686;10.030;2022-07-24T09:05:57;20.10;99.90
12746;DHT22;6437;53.686;10.030;2022-07-24T09:08:59;20.10;99.90
12746;DHT22;6437;53.686;10.030;2022-07-24T09:12:04;20.10;99.90
12746;DHT22;6437;53.686;10.030;2022-07-24T09:15:13;20.20;99.90
12746;DHT22;6437;53.686;10.030;2022-07-24T09:18:24;20.30;99.90
12746;DHT22;6437;53.686;10.030;2022-07-24T09:21:26;20.30;99.90
12746;DHT22;6437;53.686;10.030;2022-07-24T09:24:28;20.40;99.90
12746;DHT22;6437;53.686;10.030;2022-07-24T09:27:31;20.40;99.90
12746;DHT22;6437;53.686;10.030;2022-07-24T09:30:34;20.50;99.90
12746;DHT22;6437;53.686;10.030;2022-07-24T09:33:37;20.60;99.90
12746;DHT22;6437;53.686;10.030;2022-07-24T09:36:38;20.70;99.90
12746;DHT22;6437;53.686;10.030;2022-07-24T09:39:40;20.80;99.90
12746;DHT22;6437;53.686;10.030;2022-07-24T09:42:44;20.90;99.90
12746;DHT22;6437;53.686;10.030;2022-07-24T09:45:53;21.00;99.90
12746;DHT22;6437;53.686;10.030;2022-07-24T09:48:55;21.10;99.90
12746;DHT22;6437;53.686;10.030;2022-07-24T09:52:06;21.10;99.90
12746;DHT22;6437;53.686;10.030;2022-07-24T09:55:19;21.20;99.90
12746;DHT22;6437;53.686;10.030;2022-07-24T09:58:23;21.30;99.90
12746;DHT22;6437;53.686;10.030;2022-07-24T10:01:26;21.40;99.90
12746;DHT22;6437;53.686;10.030;2022-07-24T10:04:28;21.40;99.90
12746;DHT22;6437;53.686;10.030;2022-07-24T10:07:33;21.50;99.90
12746;DHT22;6437;53.686;10.030;2022-07-24T10:10:34;21.60;99.90
12746;DHT22;6437;53.686;10.030;2022-07-24T10:13:38;21.70;99.90
12746;DHT22;6437;53.686;10.030;2022-07-24T10:16:41;21.80;99.90
12746;DHT22;6437;53.686;10.030;2022-07-24T10:19:43;21.90;99.90
12746;DHT22;6437;53.686;10.030;2022-07-24T10:22:48;22.00;99.90
12746;DHT22;6437;53.686;10.030;2022-07-24T10:25:57;22.00;99.90
12746;DHT22;6437;53.686;10.030;2022-07-24T10:29:05;22.10;99.90
12746;DHT22;6437;53.686;10.030;2022-07-24T10:32:08;22.10;99.90
12746;DHT22;6437;53.686;10.030;2022-07-24T10:35:12;22.20;99.90
12746;DHT22;6437;53.686;10.030;2022-07-24T10:38:15;22.30;99.90
12746;DHT22;6437;53.686;10.030;2022-07-24T10:41:21;22.30;99.90
12746;DHT22;6437;53.686;10.030;2022-07-24T10:44:25;22.40;99.90
12746;DHT22;6437;53.686;10.030;2022-07-24T10:47:27;22.50;99.90
12746;DHT22;6437;53.686;10.030;2022-07-24T10:50:42;22.60;99.90
12746;DHT22;6437;53.686;10.030;2022-07-24T10:54:00;22.60;99.90
12746;DHT22;6437;53.686;10.030;2022-07-24T10:57:02;22.80;99.90
12746;DHT22;6437;53.686;10.030;2022-07-24T11:03:23;22.80;99.90
12746;DHT22;6437;53.686;10.030;2022-07-24T11:06:40;22.90;99.90
12746;DHT22;6437;53.686;10.030;2022-07-24T11:09:55;23.00;99.90
12746;DHT22;6437;53.686;10.030;2022-07-24T11:12:57;23.10;99.90
12746;DHT22;6437;53.686;10.030;2022-07-24T11:16:12;23.20;99.90
12746;DHT22;6437;53.686;10.030;2022-07-24T11:19:28;23.30;99.90
12746;DHT22;6437;53.686;10.030;2022-07-24T11:22:36;23.40;99.90
12746;DHT22;6437;53.686;10.030;2022-07-24T11:25:38;23.50;99.90
12746;DHT22;6437;53.686;10.030;2022-07-24T11:28:40;23.50;99.90
12746;DHT22;6437;53.686;10.030;2022-07-24T11:31:42;23.60;99.90
12746;DHT22;6437;53.686;10.030;2022-07-24T11:34:46;23.70;99.90
12746;DHT22;6437;53.686;10.030;2022-07-24T11:37:48;23.70;99.90
12746;DHT22;6437;53.686;10.030;2022-07-24T11:40:51;23.80;99.90
12746;DHT22;6437;53.686;10.030;2022-07-24T11:43:53;23.80;99.90
12746;DHT22;6437;53.686;10.030;2022-07-24T11:46:55;23.90;99.90
12746;DHT22;6437;53.686;10.030;2022-07-24T11:49:59;23.90;99.90
12746;DHT22;6437;53.686;10.030;2022-07-24T11:53:05;24.00;99.90
12746;DHT22;6437;53.686;10.030;2022-07-24T11:56:07;24.10;99.90
12746;DHT22;6437;53.686;10.030;2022-07-24T11:59:20;24.20;99.90
12746;DHT22;6437;53.686;10.030;2022-07-24T12:02:22;24.30;99.90
12746;DHT22;6437;53.686;10.030;2022-07-24T12:05:25;24.30;99.90
12746;DHT22;6437;53.686;10.030;2022-07-24T12:08:27;24.40;99.90
12746;DHT22;6437;53.686;10.030;2022-07-24T12:11:28;24.50;99.90
12746;DHT22;6437;53.686;10.030;2022-07-24T12:14:34;24.50;99.90
12746;DHT22;6437;53.686;10.030;2022-07-24T12:20:59;24.70;99.90
12746;DHT22;6437;53.686;10.030;2022-07-24T12:24:01;24.80;99.90
12746;DHT22;6437;53.686;10.030;2022-07-24T12:27:03;24.80;99.90
12746;DHT22;6437;53.686;10.030;2022-07-24T12:30:15;24.80;99.90
12746;DHT22;6437;53.686;10.030;2022-07-24T12:33:21;24.80;99.90
12746;DHT22;6437;53.686;10.030;2022-07-24T12:36:24;24.80;99.90
12746;DHT22;6437;53.686;10.030;2022-07-24T12:39:27;24.80;99.90
12746;DHT22;6437;53.686;10.030;2022-07-24T12:42:29;24.80;99.90
12746;DHT22;6437;53.686;10.030;2022-07-24T12:45:32;24.90;99.90
12746;DHT22;6437;53.686;10.030;2022-07-24T12:48:33;24.90;99.90
12746;DHT22;6437;53.686;10.030;2022-07-24T12:51:46;25.00;99.90
12746;DHT22;6437;53.686;10.030;2022-07-24T12:54:48;25.10;99.90
12746;DHT22;6437;53.686;10.030;2022-07-24T12:57:56;25.10;99.90
12746;DHT22;6437;53.686;10.030;2022-07-24T13:00:58;25.10;99.90
12746;DHT22;6437;53.686;10.030;2022-07-24T13:04:00;25.20;99.90
12746;DHT22;6437;53.686;10.030;2022-07-24T13:07:04;25.30;99.90
12746;DHT22;6437;53.686;10.030;2022-07-24T13:10:08;25.40;99.90
12746;DHT22;6437;53.686;10.030;2022-07-24T13:13:09;25.40;99.90
12746;DHT22;6437;53.686;10.030;2022-07-24T13:16:11;25.40;99.90
12746;DHT22;6437;53.686;10.030;2022-07-24T13:19:13;25.40;99.90
12746;DHT22;6437;53.686;10.030;2022-07-24T13:22:16;25.40;99.90
12746;DHT22;6437;53.686;10.030;2022-07-24T13:25:18;25.40;99.90
12746;DHT22;6437;53.686;10.030;2022-07-24T13:28:20;25.30;99.90
12746;DHT22;6437;53.686;10.030;2022-07-24T13:31:21;25.50;99.90
12746;DHT22;6437;53.686;10.030;2022-07-24T13:34:23;25.50;99.90
12746;DHT22;6437;53.686;10.030;2022-07-24T13:37:26;25.60;99.90
12746;DHT22;6437;53.686;10.030;2022-07-24T13:40:28;25.60;99.90
12746;DHT22;6437;53.686;10.030;2022-07-24T13:43:30;25.70;99.90
12746;DHT22;6437;53.686;10.030;2022-07-24T13:46:32;25.80;99.90
12746;DHT22;6437;53.686;10.030;2022-07-24T13:49:34;25.90;99.90
12746;DHT22;6437;53.686;10.030;2022-07-24T13:52:37;26.10;99.70
12746;DHT22;6437;53.686;10.030;2022-07-24T13:55:38;26.20;99.60
12746;DHT22;6437;53.686;10.030;2022-07-24T13:58:40;26.20;99.80
12746;DHT22;6437;53.686;10.030;2022-07-24T14:01:42;26.20;99.20
12746;DHT22;6437;53.686;10.030;2022-07-24T14:04:44;26.10;99.60
12746;DHT22;6437;53.686;10.030;2022-07-24T14:07:47;26.10;99.30
12746;DHT22;6437;53.686;10.030;2022-07-24T14:10:49;26.10;99.10
12746;DHT22;6437;53.686;10.030;2022-07-24T14:13:51;26.10;99.40
12746;DHT22;6437;53.686;10.030;2022-07-24T14:16:54;26.10;99.10
12746;DHT22;6437;53.686;10.030;2022-07-24T14:19:56;26.10;99.10
12746;DHT22;6437;53.686;10.030;2022-07-24T14:22:59;26.20;98.50
12746;DHT22;6437;53.686;10.030;2022-07-24T14:26:01;26.20;98.30
12746;DHT22;6437;53.686;10.030;2022-07-24T14:29:02;26.40;97.80
12746;DHT22;6437;53.686;10.030;2022-07-24T14:32:04;26.50;97.80
12746;DHT22;6437;53.686;10.030;2022-07-24T14:35:06;26.60;97.70
12746;DHT22;6437;53.686;10.030;2022-07-24T14:38:09;26.70;97.50
12746;DHT22;6437;53.686;10.030;2022-07-24T14:41:11;26.80;97.20
12746;DHT22;6437;53.686;10.030;2022-07-24T14:44:12;26.90;96.90
12746;DHT22;6437;53.686;10.030;2022-07-24T14:47:14;27.00;96.70
12746;DHT22;6437;53.686;10.030;2022-07-24T14:50:16;27.00;96.30
12746;DHT22;6437;53.686;10.030;2022-07-24T14:53:19;27.10;95.90
12746;DHT22;6437;53.686;10.030;2022-07-24T14:56:20;27.10;96.10
12746;DHT22;6437;53.686;10.030;2022-07-24T14:59:22;27.20;96.00
12746;DHT22;6437;53.686;10.030;2022-07-24T15:02:24;27.20;95.80
12746;DHT22;6437;53.686;10.030;2022-07-24T15:05:25;27.20;95.80
12746;DHT22;6437;53.686;10.030;2022-07-24T15:08:28;27.30;95.60
12746;DHT22;6437;53.686;10.030;2022-07-24T15:11:30;27.40;95.40
12746;DHT22;6437;53.686;10.030;2022-07-24T15:14:31;27.40;95.10
12746;DHT22;6437;53.686;10.030;2022-07-24T15:17:33;27.50;95.20
12746;DHT22;6437;53.686;10.030;2022-07-24T15:20:35;27.50;95.00
12746;DHT22;6437;53.686;10.030;2022-07-24T15:23:38;27.50;94.50
12746;DHT22;6437;53.686;10.030;2022-07-24T15:26:40;27.50;94.10
12746;DHT22;6437;53.686;10.030;2022-07-24T15:29:41;27.40;94.70
12746;DHT22;6437;53.686;10.030;2022-07-24T15:32:43;27.40;94.50
12746;DHT22;6437;53.686;10.030;2022-07-24T15:35:45;27.30;94.70
12746;DHT22;6437;53.686;10.030;2022-07-24T15:38:48;27.20;94.70
12746;DHT22;6437;53.686;10.030;2022-07-24T15:41:49;27.10;94.50
12746;DHT22;6437;53.686;10.030;2022-07-24T15:44:51;27.00;94.40
12746;DHT22;6437;53.686;10.030;2022-07-24T15:47:52;26.90;95.00
12746;DHT22;6437;53.686;10.030;2022-07-24T15:50:54;26.80;95.10
12746;DHT22;6437;53.686;10.030;2022-07-24T15:53:57;26.70;95.10
12746;DHT22;6437;53.686;10.030;2022-07-24T15:56:58;26.60;95.20
12746;DHT22;6437;53.686;10.030;2022-07-24T16:00:00;26.60;95.50
12746;DHT22;6437;53.686;10.030;2022-07-24T16:03:02;26.50;95.70
12746;DHT22;6437;53.686;10.030;2022-07-24T16:06:04;26.50;95.30
12746;DHT22;6437;53.686;10.030;2022-07-24T16:09:07;26.50;95.50
12746;DHT22;6437;53.686;10.030;2022-07-24T16:12:09;26.40;95.60
12746;DHT22;6437;53.686;10.030;2022-07-24T16:15:10;26.40;96.20
12746;DHT22;6437;53.686;10.030;2022-07-24T16:18:12;26.40;96.70
12746;DHT22;6437;53.686;10.030;2022-07-24T16:21:13;26.40;96.60
12746;DHT22;6437;53.686;10.030;2022-07-24T16:24:16;26.40;96.50
12746;DHT22;6437;53.686;10.030;2022-07-24T16:27:18;26.30;96.50
12746;DHT22;6437;53.686;10.030;2022-07-24T16:30:20;26.30;96.70
12746;DHT22;6437;53.686;10.030;2022-07-24T16:33:21;26.30;96.80
12746;DHT22;6437;53.686;10.030;2022-07-24T16:36:23;26.30;97.00
12746;DHT22;6437;53.686;10.030;2022-07-24T16:39:26;26.30;96.90
12746;DHT22;6437;53.686;10.030;2022-07-24T16:42:28;26.20;96.50
12746;DHT22;6437;53.686;10.030;2022-07-24T16:45:30;26.20;96.40
12746;DHT22;6437;53.686;10.030;2022-07-24T16:48:31;26.20;96.70
12746;DHT22;6437;53.686;10.030;2022-07-24T16:51:33;26.10;96.40
12746;DHT22;6437;53.686;10.030;2022-07-24T16:54:36;26.10;96.70
12746;DHT22;6437;53.686;10.030;2022-07-24T16:57:38;26.00;96.70
12746;DHT22;6437;53.686;10.030;2022-07-24T17:00:40;26.00;96.70
12746;DHT22;6437;53.686;10.030;2022-07-24T17:03:42;26.00;96.80
12746;DHT22;6437;53.686;10.030;2022-07-24T17:06:43;26.00;96.90
12746;DHT22;6437;53.686;10.030;2022-07-24T17:09:46;25.90;97.10
12746;DHT22;6437;53.686;10.030;2022-07-24T17:12:48;25.90;97.20
12746;DHT22;6437;53.686;10.030;2022-07-24T17:15:50;25.90;97.30
12746;DHT22;6437;53.686;10.030;2022-07-24T17:18:51;25.80;97.20
12746;DHT22;6437;53.686;10.030;2022-07-24T17:21:56;25.80;97.40
12746;DHT22;6437;53.686;10.030;2022-07-24T17:25:00;25.80;97.50
12746;DHT22;6437;53.686;10.030;2022-07-24T17:28:02;25.80;97.80
12746;DHT22;6437;53.686;10.030;2022-07-24T17:31:04;25.80;97.60
12746;DHT22;6437;53.686;10.030;2022-07-24T17:34:05;25.70;97.60
12746;DHT22;6437;53.686;10.030;2022-07-24T17:37:07;25.70;97.60
12746;DHT22;6437;53.686;10.030;2022-07-24T17:40:10;25.70;97.90
12746;DHT22;6437;53.686;10.030;2022-07-24T17:43:12;25.70;97.90
12746;DHT22;6437;53.686;10.030;2022-07-24T17:46:14;25.70;98.10
12746;DHT22;6437;53.686;10.030;2022-07-24T17:49:15;25.60;98.20
12746;DHT22;6437;53.686;10.030;2022-07-24T17:52:17;25.60;98.40
12746;DHT22;6437;53.686;10.030;2022-07-24T17:55:21;25.60;98.60
12746;DHT22;6437;53.686;10.030;2022-07-24T17:58:23;25.50;98.60
12746;DHT22;6437;53.686;10.030;2022-07-24T18:01:25;25.50;98.50
12746;DHT22;6437;53.686;10.030;2022-07-24T18:04:27;25.50;98.40
12746;DHT22;6437;53.686;10.030;2022-07-24T18:07:29;25.50;98.50
12746;DHT22;6437;53.686;10.030;2022-07-24T18:10:32;25.40;98.80
12746;DHT22;6437;53.686;10.030;2022-07-24T18:13:34;25.40;98.90
12746;DHT22;6437;53.686;10.030;2022-07-24T18:16:35;25.40;98.90
12746;DHT22;6437;53.686;10.030;2022-07-24T18:19:37;25.40;99.00
12746;DHT22;6437;53.686;10.030;2022-07-24T18:22:39;25.40;99.30
12746;DHT22;6437;53.686;10.030;2022-07-24T18:25:42;25.40;99.60
12746;DHT22;6437;53.686;10.030;2022-07-24T18:28:44;25.30;99.80
12746;DHT22;6437;53.686;10.030;2022-07-24T18:31:46;25.30;99.80
12746;DHT22;6437;53.686;10.030;2022-07-24T18:34:48;25.30;99.90
12746;DHT22;6437;53.686;10.030;2022-07-24T18:37:49;25.20;99.90
12746;DHT22;6437;53.686;10.030;2022-07-24T18:40:52;25.20;99.90
12746;DHT22;6437;53.686;10.030;2022-07-24T18:43:54;25.20;99.90
12746;DHT22;6437;53.686;10.030;2022-07-24T18:46:55;25.20;99.90
12746;DHT22;6437;53.686;10.030;2022-07-24T18:49:57;25.10;99.90
12746;DHT22;6437;53.686;10.030;2022-07-24T18:52:59;25.10;99.90
12746;DHT22;6437;53.686;10.030;2022-07-24T18:56:02;25.10;99.90
12746;DHT22;6437;53.686;10.030;2022-07-24T18:59:03;25.00;99.90
12746;DHT22;6437;53.686;10.030;2022-07-24T19:02:05;24.90;99.90
12746;DHT22;6437;53.686;10.030;2022-07-24T19:05:07;24.90;99.90
12746;DHT22;6437;53.686;10.030;2022-07-24T19:08:09;24.90;99.90
12746;DHT22;6437;53.686;10.030;2022-07-24T19:11:12;24.80;99.90
12746;DHT22;6437;53.686;10.030;2022-07-24T19:14:14;24.80;99.90
12746;DHT22;6437;53.686;10.030;2022-07-24T19:17:15;24.80;99.90
12746;DHT22;6437;53.686;10.030;2022-07-24T19:20:17;24.70;99.90